Terminal Aerodrome Forecast
Issued by NWS

Home | Current Version | Previous Version | Text Only | Print | Product List | Glossary On
Versions: 1 2 3 4 5 6 7 8 9 10 11 12 13 14 15 16 17 18 19 20 21 22
000
FTUS43 KGRB 260234 AAA
TAFRHI
TAF AMD
KRHI 260234Z 2603/2624 11010KT 5SM -RA BR SCT005 BKN010
      TEMPO 2603/2605 2SM +RA BKN005
     FM260700 22003KT 1SM BR BKN003 BKN010
     FM261500 21007KT P6SM SCT018 BKN025 PROB30 2615/2619 3SM -TSRA
      OVC025CB
     FM261900 24008G15KT P6SM SCT025 BKN040=

USA.gov is the U.S. government's official web portal to all federal, state and local government web resources and services.